createdAt,value
2019-05-11T00:00:34.087Z,12.10
2019-05-11T00:03:02.445Z,11.40
2019-05-11T00:05:30.923Z,11.67
2019-05-11T00:07:59.358Z,11.80
2019-05-11T00:10:27.891Z,11.30
2019-05-11T00:12:56.261Z,11.80
2019-05-11T00:15:24.815Z,11.93
2019-05-11T00:17:53.199Z,11.40
2019-05-11T00:20:21.685Z,11.40
2019-05-11T00:22:50.391Z,11.80
2019-05-11T00:25:19.290Z,11.97
2019-05-11T00:27:47.683Z,12.40
2019-05-11T00:30:16.882Z,12.07
2019-05-11T00:32:45.338Z,11.30
2019-05-11T00:35:13.773Z,11.47
2019-05-11T00:37:42.621Z,12.50
2019-05-11T00:40:14.859Z,11.77
2019-05-11T00:42:41.938Z,11.83
2019-05-11T00:45:10.839Z,11.50
2019-05-11T00:47:39.298Z,12.10
2019-05-11T00:50:11.133Z,12.57
2019-05-11T00:52:39.679Z,11.83
2019-05-11T00:55:08.195Z,11.67
2019-05-11T00:57:37.040Z,12.07
2019-05-11T01:00:07.650Z,12.10
2019-05-11T01:02:36.031Z,11.30
2019-05-11T01:05:06.711Z,11.93
2019-05-11T01:07:35.117Z,12.00
2019-05-11T01:10:05.320Z,11.30
2019-05-11T01:12:33.874Z,12.00
2019-05-11T01:15:02.761Z,12.10
2019-05-11T01:17:31.369Z,12.40
2019-05-11T01:20:00.544Z,12.00
2019-05-11T01:22:28.901Z,12.57
2019-05-11T01:24:57.306Z,12.37
2019-05-11T01:27:25.749Z,11.50
2019-05-11T01:29:54.140Z,12.00
2019-05-11T01:32:22.585Z,11.97
2019-05-11T01:34:50.976Z,11.47
2019-05-11T01:37:19.716Z,12.20
2019-05-11T01:39:48.194Z,12.20
2019-05-11T01:42:18.420Z,12.03
2019-05-11T01:44:46.960Z,11.53
2019-05-11T01:47:15.585Z,11.50
2019-05-11T01:49:44.274Z,12.47
2019-05-11T01:52:12.644Z,12.60
2019-05-11T01:54:41.033Z,12.10
2019-05-11T01:57:09.926Z,11.70
2019-05-11T01:59:38.414Z,12.13
2019-05-11T02:02:06.868Z,12.30
2019-05-11T02:04:35.317Z,12.77
2019-05-11T02:07:03.823Z,13.37
2019-05-11T02:09:32.221Z,13.20
2019-05-11T02:12:00.702Z,13.40
2019-05-11T02:14:29.080Z,13.03
2019-05-11T02:16:57.469Z,12.67
2019-05-11T02:19:25.848Z,13.00
2019-05-11T02:21:55.168Z,13.37
2019-05-11T02:24:23.906Z,13.50
2019-05-11T02:26:52.309Z,14.27
2019-05-11T02:29:21.019Z,13.37
2019-05-11T02:31:49.509Z,13.87
2019-05-11T02:34:17.935Z,13.50
2019-05-11T02:36:46.349Z,14.07
2019-05-11T02:39:15.053Z,14.50
2019-05-11T02:41:43.845Z,15.20
2019-05-11T02:44:12.339Z,14.30
2019-05-11T02:46:40.741Z,14.87
2019-05-11T02:49:09.197Z,14.27
2019-05-11T02:51:38.163Z,15.60
2019-05-11T02:54:07.303Z,14.40
2019-05-11T02:56:35.764Z,13.73
2019-05-11T02:59:04.271Z,14.00
2019-05-11T03:01:32.723Z,13.40
2019-05-11T03:04:01.414Z,13.03
2019-05-11T03:06:29.902Z,13.37
2019-05-11T03:08:58.277Z,13.53
2019-05-11T03:11:26.662Z,12.80
2019-05-11T03:13:55.142Z,12.63
2019-05-11T03:16:23.657Z,12.90
2019-05-11T03:18:52.302Z,13.30
2019-05-11T03:21:20.990Z,13.30
2019-05-11T03:23:49.370Z,12.67
2019-05-11T03:26:17.754Z,13.30
2019-05-11T03:28:46.161Z,12.70
2019-05-11T03:31:14.624Z,12.50
2019-05-11T03:33:43.181Z,14.33
2019-05-11T03:36:11.552Z,13.40
2019-05-11T03:38:39.991Z,14.57
2019-05-11T03:41:08.421Z,14.33
2019-05-11T03:43:36.808Z,13.50
2019-05-11T03:46:05.610Z,14.20
2019-05-11T03:48:34.014Z,13.37
2019-05-11T03:51:02.512Z,13.60
2019-05-11T03:53:30.920Z,13.87
2019-05-11T03:55:59.351Z,13.87
2019-05-11T03:58:27.910Z,13.57
2019-05-11T04:00:56.279Z,13.57
2019-05-11T04:03:24.990Z,15.10
2019-05-11T04:05:53.434Z,14.30
2019-05-11T04:08:21.945Z,13.70
2019-05-11T04:10:50.366Z,13.57
2019-05-11T04:13:18.830Z,14.00
2019-05-11T04:15:47.604Z,15.20
2019-05-11T04:18:16.005Z,13.63
2019-05-11T04:20:44.670Z,14.00
2019-05-11T04:23:13.215Z,13.67
2019-05-11T04:25:42.455Z,14.47
2019-05-11T04:28:10.884Z,13.73
2019-05-11T04:30:39.339Z,14.17
2019-05-11T04:33:08.004Z,14.77
2019-05-11T04:35:36.802Z,13.90
2019-05-11T04:38:05.189Z,14.20
2019-05-11T04:40:33.864Z,13.90
2019-05-11T04:43:02.250Z,15.13
2019-05-11T04:45:30.690Z,14.70
2019-05-11T04:47:59.534Z,14.83
2019-05-11T04:50:27.949Z,14.20
2019-05-11T04:52:56.431Z,14.13
2019-05-11T04:55:24.862Z,14.50
2019-05-11T04:57:53.390Z,14.30
2019-05-11T05:00:22.446Z,14.20
2019-05-11T05:02:51.020Z,13.60
2019-05-11T05:05:19.807Z,13.60
2019-05-11T05:07:50.420Z,13.73
2019-05-11T05:10:21.913Z,13.27
2019-05-11T05:12:51.634Z,13.40
2019-05-11T05:15:18.786Z,12.77
2019-05-11T05:17:47.324Z,13.13
2019-05-11T05:20:16.240Z,13.33
2019-05-11T05:22:44.660Z,13.10
2019-05-11T05:25:13.170Z,12.50
2019-05-11T05:27:41.567Z,13.13
2019-05-11T05:30:10.186Z,12.63
2019-05-11T05:32:38.709Z,12.43
2019-05-11T05:35:07.437Z,12.17
2019-05-11T05:37:36.636Z,12.07
2019-05-11T05:40:05.465Z,11.90
2019-05-11T05:42:34.225Z,11.33
2019-05-11T05:45:02.766Z,11.40
2019-05-11T05:47:31.206Z,11.47
2019-05-11T05:49:59.615Z,11.60
2019-05-11T05:52:28.052Z,11.20
2019-05-11T05:54:56.593Z,11.87
2019-05-11T05:57:25.109Z,11.87
2019-05-11T05:59:53.797Z,11.97
2019-05-11T06:02:22.483Z,12.00
2019-05-11T06:04:50.891Z,11.80
2019-05-11T06:07:19.258Z,11.00
2019-05-11T06:09:47.763Z,12.10
2019-05-11T06:12:16.265Z,11.13
2019-05-11T06:14:44.812Z,12.33
2019-05-11T06:17:13.277Z,12.33
2019-05-11T06:19:42.064Z,11.33
2019-05-11T06:22:10.513Z,11.57
2019-05-11T06:24:38.978Z,12.03
2019-05-11T06:27:07.359Z,18.27
2019-05-11T06:29:35.903Z,18.10
2019-05-11T06:32:05.034Z,16.20
2019-05-11T06:34:33.396Z,11.90
2019-05-11T06:37:01.834Z,10.70
2019-05-11T06:39:30.324Z,11.40
2019-05-11T06:41:58.978Z,11.30
2019-05-11T06:44:27.429Z,10.60
2019-05-11T06:46:56.194Z,10.50
2019-05-11T06:49:24.681Z,10.97
2019-05-11T06:51:53.169Z,10.00
2019-05-11T06:54:21.798Z,10.13
2019-05-11T06:56:50.247Z,9.83
2019-05-11T06:59:19.009Z,10.77
2019-05-11T07:01:47.728Z,10.43
2019-05-11T07:04:16.194Z,10.50
2019-05-11T07:06:44.636Z,10.30
2019-05-11T07:09:13.109Z,9.97
2019-05-11T07:11:41.554Z,9.47
2019-05-11T07:14:19.768Z,9.80
2019-05-11T07:16:40.146Z,10.10
2019-05-11T07:19:09.123Z,10.03
2019-05-11T07:21:37.501Z,9.67
2019-05-11T07:24:05.950Z,10.80
2019-05-11T07:26:34.328Z,10.03
2019-05-11T07:29:02.795Z,9.90
2019-05-11T07:31:31.288Z,10.13
2019-05-11T07:34:00.026Z,9.80
2019-05-11T07:36:28.479Z,10.73
2019-05-11T07:38:58.042Z,9.80
2019-05-11T07:41:28.098Z,9.83
2019-05-11T07:43:58.924Z,10.30
2019-05-11T07:46:28.866Z,9.50
2019-05-11T07:48:58.495Z,9.47
2019-05-11T07:51:28.744Z,9.83
2019-05-11T07:53:58.071Z,9.83
2019-05-11T07:56:28.567Z,10.30
2019-05-11T07:58:58.097Z,9.60
2019-05-11T08:01:28.213Z,10.43
2019-05-11T08:03:58.628Z,10.00
2019-05-11T08:06:28.528Z,9.63
2019-05-11T08:08:58.856Z,9.07
2019-05-11T08:11:31.236Z,9.17
2019-05-11T08:13:58.553Z,9.03
2019-05-11T08:16:28.550Z,9.60
2019-05-11T08:18:58.894Z,9.20
2019-05-11T08:21:28.504Z,8.97
2019-05-11T08:23:58.776Z,9.30
2019-05-11T08:26:28.246Z,10.03
2019-05-11T08:28:57.880Z,10.30
2019-05-11T08:31:27.934Z,9.00
2019-05-11T08:33:58.270Z,9.57
2019-05-11T08:36:28.921Z,9.47
2019-05-11T08:38:58.612Z,9.73
2019-05-11T08:41:28.072Z,9.33
2019-05-11T08:43:58.728Z,9.40
2019-05-11T08:46:27.900Z,9.20
2019-05-11T08:48:56.579Z,9.37
2019-05-11T08:51:25.062Z,11.27
2019-05-11T08:53:53.853Z,9.70
2019-05-11T08:56:22.652Z,9.00
2019-05-11T08:58:51.164Z,9.13
2019-05-11T09:01:20.352Z,9.30
2019-05-11T09:03:48.707Z,9.17
2019-05-11T09:06:18.064Z,9.50
2019-05-11T09:08:49.078Z,9.27
2019-05-11T09:11:18.798Z,9.27
2019-05-11T09:13:48.857Z,9.23
2019-05-11T09:16:19.112Z,9.50
2019-05-11T09:18:48.071Z,9.33
2019-05-11T09:21:18.920Z,9.37
2019-05-11T09:23:48.607Z,9.43
2019-05-11T09:26:18.176Z,9.67
2019-05-11T09:28:47.566Z,9.40
2019-05-11T09:31:18.604Z,9.30
2019-05-11T09:33:47.923Z,10.37
2019-05-11T09:36:17.982Z,10.77
2019-05-11T09:38:48.933Z,9.73
2019-05-11T09:41:18.137Z,9.77
2019-05-11T09:43:48.346Z,10.13
2019-05-11T09:46:18.791Z,9.33
2019-05-11T09:48:48.347Z,9.70
2019-05-11T09:51:18.500Z,9.50
2019-05-11T09:53:48.302Z,9.60
2019-05-11T09:56:18.287Z,9.80
2019-05-11T09:58:48.001Z,9.93
2019-05-11T10:01:18.216Z,12.40
2019-05-11T10:03:48.119Z,9.93
2019-05-11T10:06:18.952Z,9.47
2019-05-11T10:08:48.652Z,9.73
2019-05-11T10:11:19.085Z,9.57
2019-05-11T10:13:47.880Z,9.43
2019-05-11T10:16:17.907Z,9.47
2019-05-11T10:18:49.050Z,10.23
2019-05-11T10:21:18.742Z,9.10
2019-05-11T10:23:48.957Z,9.67
2019-05-11T10:26:18.650Z,9.90
2019-05-11T10:28:48.364Z,9.50
2019-05-11T10:31:18.136Z,9.27
2019-05-11T10:33:49.032Z,9.60
2019-05-11T10:36:18.867Z,9.87
2019-05-11T10:38:48.631Z,9.80
2019-05-11T10:41:18.302Z,9.70
2019-05-11T10:43:49.045Z,9.53
2019-05-11T10:46:22.976Z,9.60
2019-05-11T10:48:48.305Z,9.93
2019-05-11T10:51:18.358Z,10.30
2019-05-11T10:53:51.641Z,10.07
2019-05-11T10:56:17.960Z,9.80
2019-05-11T10:58:48.297Z,9.63
2019-05-11T11:01:18.106Z,9.63
2019-05-11T11:03:48.321Z,9.97
2019-05-11T11:06:18.809Z,9.63
2019-05-11T11:08:48.764Z,9.60
2019-05-11T11:11:18.444Z,9.80
2019-05-11T11:13:47.993Z,9.87
2019-05-11T11:16:32.701Z,9.93
2019-05-11T11:18:48.637Z,9.90
2019-05-11T11:21:22.108Z,9.77
2019-05-11T11:23:48.006Z,9.83
2019-05-11T11:26:18.529Z,9.93
2019-05-11T11:28:47.829Z,10.10
2019-05-11T11:31:18.625Z,9.80
2019-05-11T11:33:48.897Z,10.10
2019-05-11T11:36:17.918Z,9.77
2019-05-11T11:38:47.900Z,9.93
2019-05-11T11:41:18.464Z,9.90
2019-05-11T11:43:48.348Z,9.73
2019-05-11T11:46:18.782Z,9.50
2019-05-11T11:48:48.866Z,10.53
2019-05-11T11:51:18.743Z,10.40
2019-05-11T11:53:47.905Z,10.30
2019-05-11T11:56:18.928Z,9.77
2019-05-11T11:58:48.757Z,10.60
2019-05-11T12:01:18.864Z,10.83
2019-05-11T12:03:48.708Z,10.00
2019-05-11T12:06:18.178Z,10.10
2019-05-11T12:08:49.723Z,9.93
2019-05-11T12:11:18.783Z,10.37
2019-05-11T12:13:47.773Z,9.80
2019-05-11T12:16:18.072Z,10.00
2019-05-11T12:18:48.517Z,10.00
2019-05-11T12:21:18.601Z,9.60
2019-05-11T12:23:48.571Z,10.47
2019-05-11T12:26:17.831Z,10.00
2019-05-11T12:28:48.803Z,9.73
2019-05-11T12:31:18.386Z,10.00
2019-05-11T12:33:48.214Z,10.10
2019-05-11T12:36:18.753Z,10.33
2019-05-11T12:38:48.849Z,10.10
2019-05-11T12:41:19.069Z,10.37
2019-05-11T12:43:48.901Z,9.87
2019-05-11T12:46:18.899Z,10.57
2019-05-11T12:48:48.502Z,10.60
2019-05-11T12:51:18.575Z,10.57
2019-05-11T12:53:47.768Z,9.90
2019-05-11T12:56:18.711Z,10.07
2019-05-11T12:58:48.972Z,10.50
2019-05-11T13:01:18.726Z,10.60
2019-05-11T13:03:48.939Z,11.23
2019-05-11T13:06:19.105Z,9.77
2019-05-11T13:08:48.037Z,10.80
2019-05-11T13:11:18.719Z,17.70
2019-05-11T13:13:48.464Z,13.03
2019-05-11T13:16:18.357Z,11.20
2019-05-11T13:18:48.742Z,10.20
2019-05-11T13:21:18.387Z,10.97
2019-05-11T13:23:48.859Z,13.00
2019-05-11T13:26:18.083Z,11.63
2019-05-11T13:28:48.337Z,10.97
2019-05-11T13:31:18.591Z,11.00
2019-05-11T13:33:48.154Z,11.17
2019-05-11T13:36:18.551Z,11.30
2019-05-11T13:38:48.292Z,10.73
2019-05-11T13:41:18.845Z,11.40
2019-05-11T13:43:48.531Z,11.63
2019-05-11T13:46:18.009Z,11.23
2019-05-11T13:48:47.739Z,10.70
2019-05-11T13:51:18.259Z,10.93
2019-05-11T13:53:48.276Z,11.10
2019-05-11T13:56:18.368Z,11.43
2019-05-11T13:58:48.791Z,10.60
2019-05-11T14:01:18.386Z,12.77
2019-05-11T14:06:18.488Z,11.90
2019-05-11T14:08:48.330Z,10.60
2019-05-11T14:11:18.246Z,11.00
2019-05-11T14:13:48.091Z,10.90
2019-05-11T14:16:18.573Z,11.27
2019-05-11T14:18:48.810Z,11.70
2019-05-11T14:21:18.550Z,11.80
2019-05-11T14:23:48.368Z,10.70
2019-05-11T14:26:19.147Z,11.10
2019-05-11T14:28:48.120Z,11.23
2019-05-11T14:31:18.837Z,10.80
2019-05-11T14:32:21.057Z,18.97
2019-05-11T14:33:48.866Z,11.23
2019-05-11T14:36:18.432Z,11.37
2019-05-11T14:38:48.694Z,11.50
2019-05-11T14:41:18.143Z,11.00
2019-05-11T14:43:49.009Z,11.80
2019-05-11T14:46:18.076Z,11.40
2019-05-11T14:48:48.070Z,11.73
2019-05-11T14:51:18.125Z,11.30
2019-05-11T14:53:48.084Z,12.03
2019-05-11T14:56:18.988Z,11.57
2019-05-11T14:58:49.261Z,11.23
2019-05-11T15:01:18.607Z,11.60
2019-05-11T15:03:48.889Z,11.53
2019-05-11T15:06:18.793Z,11.20
2019-05-11T15:08:47.978Z,11.43
2019-05-11T15:11:18.915Z,12.50
2019-05-11T15:13:48.769Z,11.57
2019-05-11T15:16:18.707Z,12.87
2019-05-11T15:18:48.515Z,13.33
2019-05-11T15:21:19.025Z,12.70
2019-05-11T15:23:48.217Z,12.30
2019-05-11T15:26:18.713Z,12.30
2019-05-11T15:28:48.549Z,12.40
2019-05-11T15:31:21.970Z,12.50
2019-05-11T15:33:48.881Z,12.67
2019-05-11T15:36:19.284Z,13.37
2019-05-11T15:38:48.300Z,12.87
2019-05-11T15:41:17.656Z,13.77
2019-05-11T15:43:48.056Z,13.03
2019-05-11T15:46:19.409Z,12.30
2019-05-11T15:48:56.602Z,13.20
2019-05-11T15:51:18.747Z,14.10
2019-05-11T15:53:50.021Z,13.30
2019-05-11T15:56:18.998Z,13.17
2019-05-11T15:58:48.550Z,12.13
2019-05-11T16:01:18.593Z,12.80
2019-05-11T16:03:50.008Z,14.20
2019-05-11T16:06:18.551Z,13.27
2019-05-11T16:08:47.555Z,13.40
2019-05-11T16:11:18.011Z,13.70
2019-05-11T16:13:48.448Z,13.80
2019-05-11T16:16:21.898Z,13.93
2019-05-11T16:18:50.718Z,14.30
2019-05-11T16:21:19.462Z,14.27
2019-05-11T16:23:48.097Z,14.20
2019-05-11T16:26:17.580Z,16.90
2019-05-11T16:28:47.712Z,13.90
2019-05-11T16:31:17.972Z,13.17
2019-05-11T16:33:48.422Z,12.10
2019-05-11T16:36:18.072Z,11.63
2019-05-11T16:38:48.360Z,12.10
2019-05-11T16:41:17.911Z,12.10
2019-05-11T16:43:47.993Z,11.80
2019-05-11T16:46:17.745Z,12.20
2019-05-11T16:48:46.476Z,12.27
2019-05-11T16:51:14.933Z,12.10
2019-05-11T16:53:43.341Z,13.27
2019-05-11T16:56:11.703Z,14.07
2019-05-11T16:58:41.033Z,13.97
2019-05-11T17:01:09.763Z,13.13
2019-05-11T17:03:40.147Z,13.40
2019-05-11T17:06:08.609Z,14.07
2019-05-11T17:08:38.377Z,13.93
2019-05-11T17:11:08.144Z,14.07
2019-05-11T17:13:37.942Z,13.87
2019-05-11T17:16:08.615Z,13.73
2019-05-11T17:18:37.182Z,14.03
2019-05-11T17:21:07.788Z,15.67
2019-05-11T17:23:38.333Z,14.60
2019-05-11T17:26:08.505Z,13.77
2019-05-11T17:28:38.469Z,13.77
2019-05-11T17:31:07.975Z,15.47
2019-05-11T17:33:38.541Z,14.20
2019-05-11T17:36:08.404Z,15.23
2019-05-11T17:38:38.919Z,13.00
2019-05-11T17:41:08.484Z,13.20
2019-05-11T17:43:38.620Z,13.43
2019-05-11T17:46:08.036Z,13.50
2019-05-11T17:48:38.808Z,12.90
2019-05-11T17:51:20.660Z,12.00
2019-05-11T17:53:37.801Z,12.80
2019-05-11T17:56:06.288Z,12.30
2019-05-11T17:58:34.776Z,12.97
2019-05-11T18:01:03.349Z,12.90
2019-05-11T18:03:31.749Z,12.23
2019-05-11T18:06:00.202Z,13.07
2019-05-11T18:08:30.892Z,13.93
2019-05-11T18:10:58.825Z,13.27
2019-05-11T18:13:28.348Z,12.70
2019-05-11T18:15:57.852Z,13.20
2019-05-11T18:18:29.031Z,13.67
2019-05-11T18:20:57.820Z,13.20
2019-05-11T18:23:28.226Z,13.60
2019-05-11T18:25:57.051Z,13.63
2019-05-11T18:28:28.756Z,12.77
2019-05-11T18:30:58.238Z,14.03
2019-05-11T18:33:27.680Z,22.90
2019-05-11T18:35:58.556Z,14.10
2019-05-11T18:38:27.655Z,12.40
2019-05-11T18:40:57.993Z,12.20
2019-05-11T18:43:27.990Z,15.90
2019-05-11T18:45:58.107Z,13.57
2019-05-11T18:48:29.065Z,12.17
2019-05-11T18:50:58.942Z,13.90
2019-05-11T18:53:28.864Z,19.60
2019-05-11T18:55:58.973Z,30.10
2019-05-11T18:58:28.005Z,15.63
2019-05-11T19:00:56.898Z,11.93
2019-05-11T19:03:25.286Z,11.83
2019-05-11T19:05:53.841Z,12.10
2019-05-11T19:08:22.499Z,11.20
2019-05-11T19:10:50.919Z,10.57
2019-05-11T19:13:19.422Z,11.80
2019-05-11T19:15:48.660Z,11.37
2019-05-11T19:18:17.418Z,11.77
2019-05-11T19:20:49.143Z,11.43
2019-05-11T19:23:16.224Z,10.90
2019-05-11T19:25:44.761Z,11.37
2019-05-11T19:28:13.268Z,13.20
2019-05-11T19:30:41.708Z,11.80
2019-05-11T19:33:11.190Z,12.60
2019-05-11T19:35:39.997Z,19.50
2019-05-11T19:38:08.805Z,12.43
2019-05-11T19:40:39.079Z,11.07
2019-05-11T19:43:08.193Z,11.23
2019-05-11T19:45:38.379Z,11.70
2019-05-11T19:48:08.420Z,11.10
2019-05-11T19:50:40.313Z,10.87
2019-05-11T19:53:08.469Z,10.20
2019-05-11T19:55:37.432Z,12.77
2019-05-11T19:58:06.004Z,24.43
2019-05-11T20:00:34.463Z,13.13
2019-05-11T20:03:02.946Z,12.23
2019-05-11T20:05:32.946Z,12.23
2019-05-11T20:08:01.419Z,10.70
2019-05-11T20:10:30.352Z,10.47
2019-05-11T20:12:59.020Z,10.40
2019-05-11T20:15:27.449Z,10.73
2019-05-11T20:17:55.841Z,11.20
2019-05-11T20:20:24.302Z,14.37
2019-05-11T20:22:52.812Z,13.10
2019-05-11T20:25:21.349Z,13.23
2019-05-11T20:27:49.727Z,10.10
2019-05-11T20:30:19.259Z,9.50
2019-05-11T20:32:49.181Z,9.50
2019-05-11T20:35:18.259Z,9.30
2019-05-11T20:37:47.143Z,9.90
2019-05-11T20:40:18.098Z,9.80
2019-05-11T20:42:48.254Z,8.80
2019-05-11T20:45:18.460Z,9.20
2019-05-11T20:47:48.755Z,9.00
2019-05-11T20:50:18.391Z,9.43
2019-05-11T20:52:48.027Z,8.70
2019-05-11T20:55:18.237Z,9.27
2019-05-11T20:57:48.250Z,8.93
2019-05-11T21:00:18.668Z,9.00
2019-05-11T21:02:48.753Z,9.33
2019-05-11T21:05:18.693Z,9.03
2019-05-11T21:07:47.117Z,9.30
2019-05-11T21:10:16.211Z,9.07
2019-05-11T21:12:44.624Z,9.13
2019-05-11T21:15:14.559Z,8.93
2019-05-11T21:17:43.337Z,8.40
2019-05-11T21:20:11.855Z,8.50
2019-05-11T21:22:40.950Z,8.93
2019-05-11T21:25:09.896Z,9.00
2019-05-11T21:27:38.820Z,9.00
2019-05-11T21:30:10.806Z,8.80
2019-05-11T21:32:40.244Z,8.60
2019-05-11T21:35:09.329Z,8.70
2019-05-11T21:37:38.874Z,12.10
2019-05-11T21:40:09.110Z,13.13
2019-05-11T21:42:39.090Z,10.80
2019-05-11T21:45:09.527Z,10.40
2019-05-11T21:47:39.056Z,10.20
2019-05-11T21:50:08.982Z,8.97
2019-05-11T21:52:38.425Z,10.73
2019-05-11T21:55:09.376Z,9.63
2019-05-11T21:57:38.398Z,9.80
2019-05-11T22:00:08.918Z,8.77
2019-05-11T22:02:38.680Z,9.40
2019-05-11T22:05:08.549Z,9.17
2019-05-11T22:07:38.738Z,9.37
2019-05-11T22:10:10.350Z,9.23
2019-05-11T22:12:39.488Z,8.90
2019-05-11T22:15:09.396Z,8.40
2019-05-11T22:17:39.291Z,8.30
2019-05-11T22:20:09.692Z,8.70
2019-05-11T22:22:39.065Z,8.53
2019-05-11T22:25:08.643Z,8.77
2019-05-11T22:27:38.741Z,9.33
2019-05-11T22:30:11.095Z,9.40
2019-05-11T22:32:39.535Z,8.77
2019-05-11T22:35:09.457Z,9.17
2019-05-11T22:37:39.050Z,8.90
2019-05-11T22:40:08.567Z,8.60
2019-05-11T22:42:37.710Z,9.50
2019-05-11T22:45:08.591Z,9.30
2019-05-11T22:47:39.281Z,9.10
2019-05-11T22:50:08.297Z,9.50
2019-05-11T22:52:39.772Z,9.40
2019-05-11T22:55:08.931Z,9.13
2019-05-11T22:57:38.240Z,8.33
2019-05-11T23:00:10.238Z,9.07
2019-05-11T23:02:38.663Z,9.27
2019-05-11T23:05:08.617Z,9.40
2019-05-11T23:07:41.148Z,8.90
2019-05-11T23:10:09.294Z,9.60
2019-05-11T23:12:38.493Z,9.00
2019-05-11T23:15:14.725Z,8.90
2019-05-11T23:17:43.144Z,9.10
2019-05-11T23:20:12.039Z,9.13
2019-05-11T23:22:57.439Z,8.90
2019-05-11T23:25:20.033Z,9.43
2019-05-11T23:27:48.979Z,9.03
2019-05-11T23:30:19.809Z,8.80
2019-05-11T23:32:48.879Z,9.10
2019-05-11T23:35:18.792Z,9.90
2019-05-11T23:37:49.552Z,9.20
2019-05-11T23:40:18.453Z,9.40
2019-05-11T23:42:48.926Z,9.13
2019-05-11T23:45:18.809Z,8.80
2019-05-11T23:47:48.746Z,9.07
2019-05-11T23:50:19.520Z,9.03
2019-05-11T23:52:53.414Z,9.17
2019-05-11T23:55:19.469Z,9.80
2019-05-11T23:57:48.810Z,9.50
